sensor_id;sensor_type;location;lat;lon;timestamp;P1;durP1;ratioP1;P2;durP2;ratioP2
30233;SDS011;17046;52.074;4.748;2023-02-18T00:01:19;53.37;;;23.53;;
30233;SDS011;17046;52.074;4.748;2023-02-18T00:03:46;55.83;;;23.63;;
30233;SDS011;17046;52.074;4.748;2023-02-18T00:06:16;57.73;;;24.77;;
30233;SDS011;17046;52.074;4.748;2023-02-18T00:08:46;53.10;;;23.00;;
30233;SDS011;17046;52.074;4.748;2023-02-18T00:11:13;57.73;;;23.73;;
30233;SDS011;17046;52.074;4.748;2023-02-18T00:13:40;58.17;;;22.83;;
30233;SDS011;17046;52.074;4.748;2023-02-18T00:16:11;58.70;;;24.10;;
30233;SDS011;17046;52.074;4.748;2023-02-18T00:18:38;66.80;;;24.90;;
30233;SDS011;17046;52.074;4.748;2023-02-18T00:21:05;66.50;;;27.10;;
30233;SDS011;17046;52.074;4.748;2023-02-18T00:23:32;72.20;;;28.77;;
30233;SDS011;17046;52.074;4.748;2023-02-18T00:26:02;68.70;;;28.00;;
30233;SDS011;17046;52.074;4.748;2023-02-18T00:28:33;65.70;;;27.80;;
30233;SDS011;17046;52.074;4.748;2023-02-18T00:31:04;63.17;;;26.37;;
30233;SDS011;17046;52.074;4.748;2023-02-18T00:33:31;67.60;;;28.50;;
30233;SDS011;17046;52.074;4.748;2023-02-18T00:36:00;70.63;;;29.43;;
30233;SDS011;17046;52.074;4.748;2023-02-18T00:38:30;74.77;;;28.10;;
30233;SDS011;17046;52.074;4.748;2023-02-18T00:40:56;78.07;;;32.20;;
30233;SDS011;17046;52.074;4.748;2023-02-18T00:43:22;74.93;;;30.83;;
30233;SDS011;17046;52.074;4.748;2023-02-18T00:45:47;80.47;;;33.00;;
30233;SDS011;17046;52.074;4.748;2023-02-18T00:48:13;92.80;;;36.43;;
30233;SDS011;17046;52.074;4.748;2023-02-18T00:50:39;83.17;;;34.63;;
30233;SDS011;17046;52.074;4.748;2023-02-18T00:53:04;89.40;;;37.50;;
30233;SDS011;17046;52.074;4.748;2023-02-18T00:55:30;90.87;;;34.90;;
30233;SDS011;17046;52.074;4.748;2023-02-18T00:57:55;88.43;;;36.60;;
30233;SDS011;17046;52.074;4.748;2023-02-18T01:00:21;94.60;;;35.67;;
30233;SDS011;17046;52.074;4.748;2023-02-18T01:02:49;92.57;;;38.03;;
30233;SDS011;17046;52.074;4.748;2023-02-18T01:05:18;92.10;;;36.70;;
30233;SDS011;17046;52.074;4.748;2023-02-18T01:07:44;90.13;;;35.77;;
30233;SDS011;17046;52.074;4.748;2023-02-18T01:10:09;89.97;;;33.27;;
30233;SDS011;17046;52.074;4.748;2023-02-18T01:12:35;86.90;;;34.57;;
30233;SDS011;17046;52.074;4.748;2023-02-18T01:15:02;83.63;;;32.97;;
30233;SDS011;17046;52.074;4.748;2023-02-18T01:17:28;79.90;;;31.30;;
30233;SDS011;17046;52.074;4.748;2023-02-18T01:19:54;70.07;;;28.80;;
30233;SDS011;17046;52.074;4.748;2023-02-18T01:22:19;72.70;;;28.17;;
30233;SDS011;17046;52.074;4.748;2023-02-18T01:24:45;68.43;;;27.93;;
30233;SDS011;17046;52.074;4.748;2023-02-18T01:27:10;68.50;;;27.63;;
30233;SDS011;17046;52.074;4.748;2023-02-18T01:29:36;74.33;;;29.80;;
30233;SDS011;17046;52.074;4.748;2023-02-18T01:32:02;67.40;;;27.87;;
30233;SDS011;17046;52.074;4.748;2023-02-18T01:34:27;70.30;;;28.00;;
30233;SDS011;17046;52.074;4.748;2023-02-18T01:36:54;81.97;;;30.07;;
30233;SDS011;17046;52.074;4.748;2023-02-18T01:39:20;65.57;;;28.30;;
30233;SDS011;17046;52.074;4.748;2023-02-18T01:41:46;61.40;;;26.17;;
30233;SDS011;17046;52.074;4.748;2023-02-18T01:44:12;56.50;;;25.40;;
30233;SDS011;17046;52.074;4.748;2023-02-18T01:46:40;63.40;;;24.80;;
30233;SDS011;17046;52.074;4.748;2023-02-18T01:49:05;60.53;;;26.27;;
30233;SDS011;17046;52.074;4.748;2023-02-18T01:51:33;69.37;;;26.60;;
30233;SDS011;17046;52.074;4.748;2023-02-18T01:54:10;62.20;;;25.97;;
30233;SDS011;17046;52.074;4.748;2023-02-18T01:59:23;63.40;;;28.23;;
30233;SDS011;17046;52.074;4.748;2023-02-18T02:01:52;61.47;;;27.47;;
30233;SDS011;17046;52.074;4.748;2023-02-18T02:04:19;60.70;;;24.03;;
30233;SDS011;17046;52.074;4.748;2023-02-18T02:06:45;56.77;;;23.30;;
30233;SDS011;17046;52.074;4.748;2023-02-18T02:09:12;56.77;;;22.30;;
30233;SDS011;17046;52.074;4.748;2023-02-18T02:17:28;78.20;;;28.57;;
30233;SDS011;17046;52.074;4.748;2023-02-18T02:34:34;72.07;;;25.60;;
30233;SDS011;17046;52.074;4.748;2023-02-18T02:41:07;56.37;;;23.73;;
30233;SDS011;17046;52.074;4.748;2023-02-18T02:42:59;63.20;;;25.47;;
30233;SDS011;17046;52.074;4.748;2023-02-18T02:56:48;72.20;;;27.77;;
30233;SDS011;17046;52.074;4.748;2023-02-18T02:59:15;68.97;;;26.20;;
30233;SDS011;17046;52.074;4.748;2023-02-18T03:04:51;70.23;;;28.87;;
30233;SDS011;17046;52.074;4.748;2023-02-18T03:15:52;63.17;;;30.13;;
30233;SDS011;17046;52.074;4.748;2023-02-18T03:18:24;66.50;;;30.67;;
30233;SDS011;17046;52.074;4.748;2023-02-18T03:21:05;65.23;;;29.00;;
30233;SDS011;17046;52.074;4.748;2023-02-18T03:23:37;59.27;;;27.43;;
30233;SDS011;17046;52.074;4.748;2023-02-18T03:26:09;56.00;;;26.90;;
30233;SDS011;17046;52.074;4.748;2023-02-18T03:28:36;47.20;;;24.03;;
30233;SDS011;17046;52.074;4.748;2023-02-18T03:31:07;55.17;;;24.40;;
30233;SDS011;17046;52.074;4.748;2023-02-18T03:33:38;45.30;;;22.50;;
30233;SDS011;17046;52.074;4.748;2023-02-18T03:36:09;43.20;;;22.10;;
30233;SDS011;17046;52.074;4.748;2023-02-18T03:38:37;37.63;;;20.60;;
30233;SDS011;17046;52.074;4.748;2023-02-18T03:41:08;31.63;;;18.07;;
30233;SDS011;17046;52.074;4.748;2023-02-18T03:43:34;32.37;;;18.13;;
30233;SDS011;17046;52.074;4.748;2023-02-18T03:45:59;28.20;;;17.47;;
30233;SDS011;17046;52.074;4.748;2023-02-18T03:48:26;35.13;;;17.43;;
30233;SDS011;17046;52.074;4.748;2023-02-18T03:50:52;28.43;;;16.70;;
30233;SDS011;17046;52.074;4.748;2023-02-18T03:53:17;29.97;;;17.93;;
30233;SDS011;17046;52.074;4.748;2023-02-18T03:55:43;28.60;;;17.10;;
30233;SDS011;17046;52.074;4.748;2023-02-18T03:58:09;27.57;;;16.60;;
30233;SDS011;17046;52.074;4.748;2023-02-18T04:00:35;23.83;;;13.93;;
30233;SDS011;17046;52.074;4.748;2023-02-18T04:03:00;25.03;;;13.33;;
30233;SDS011;17046;52.074;4.748;2023-02-18T04:05:26;25.20;;;12.33;;
30233;SDS011;17046;52.074;4.748;2023-02-18T04:07:52;24.53;;;13.10;;
30233;SDS011;17046;52.074;4.748;2023-02-18T04:10:18;24.60;;;13.23;;
30233;SDS011;17046;52.074;4.748;2023-02-18T04:12:44;22.67;;;12.00;;
30233;SDS011;17046;52.074;4.748;2023-02-18T04:15:10;26.50;;;12.37;;
30233;SDS011;17046;52.074;4.748;2023-02-18T04:17:37;24.97;;;11.77;;
30233;SDS011;17046;52.074;4.748;2023-02-18T04:20:03;30.60;;;12.67;;
30233;SDS011;17046;52.074;4.748;2023-02-18T04:22:30;23.13;;;11.50;;
30233;SDS011;17046;52.074;4.748;2023-02-18T04:24:55;25.33;;;12.00;;
30233;SDS011;17046;52.074;4.748;2023-02-18T04:27:21;25.33;;;12.17;;
30233;SDS011;17046;52.074;4.748;2023-02-18T04:29:46;22.53;;;11.47;;
30233;SDS011;17046;52.074;4.748;2023-02-18T04:32:12;27.67;;;12.40;;
30233;SDS011;17046;52.074;4.748;2023-02-18T04:34:38;28.63;;;12.33;;
30233;SDS011;17046;52.074;4.748;2023-02-18T04:37:03;25.67;;;12.77;;
30233;SDS011;17046;52.074;4.748;2023-02-18T04:39:29;30.07;;;14.03;;
30233;SDS011;17046;52.074;4.748;2023-02-18T04:41:54;29.17;;;13.70;;
30233;SDS011;17046;52.074;4.748;2023-02-18T04:44:20;34.63;;;15.17;;
30233;SDS011;17046;52.074;4.748;2023-02-18T04:46:45;36.40;;;14.90;;
30233;SDS011;17046;52.074;4.748;2023-02-18T04:49:11;37.27;;;15.93;;
30233;SDS011;17046;52.074;4.748;2023-02-18T04:51:37;38.87;;;14.60;;
30233;SDS011;17046;52.074;4.748;2023-02-18T04:54:03;39.57;;;15.60;;
30233;SDS011;17046;52.074;4.748;2023-02-18T04:56:29;35.77;;;15.53;;
30233;SDS011;17046;52.074;4.748;2023-02-18T04:58:54;40.77;;;16.63;;
30233;SDS011;17046;52.074;4.748;2023-02-18T05:01:20;40.80;;;17.10;;
30233;SDS011;17046;52.074;4.748;2023-02-18T05:03:46;42.43;;;17.23;;
30233;SDS011;17046;52.074;4.748;2023-02-18T05:06:11;38.20;;;16.33;;
30233;SDS011;17046;52.074;4.748;2023-02-18T05:08:37;33.00;;;14.83;;
30233;SDS011;17046;52.074;4.748;2023-02-18T05:11:08;38.53;;;16.23;;
30233;SDS011;17046;52.074;4.748;2023-02-18T05:13:34;37.13;;;15.73;;
30233;SDS011;17046;52.074;4.748;2023-02-18T05:16:00;30.90;;;14.07;;
30233;SDS011;17046;52.074;4.748;2023-02-18T05:18:25;34.23;;;14.83;;
30233;SDS011;17046;52.074;4.748;2023-02-18T05:20:51;35.07;;;15.80;;
30233;SDS011;17046;52.074;4.748;2023-02-18T05:23:17;30.87;;;15.73;;
30233;SDS011;17046;52.074;4.748;2023-02-18T05:25:45;32.73;;;14.87;;
30233;SDS011;17046;52.074;4.748;2023-02-18T05:28:11;33.03;;;14.43;;
30233;SDS011;17046;52.074;4.748;2023-02-18T05:30:36;33.97;;;14.90;;
30233;SDS011;17046;52.074;4.748;2023-02-18T05:33:03;33.07;;;15.10;;
30233;SDS011;17046;52.074;4.748;2023-02-18T05:35:28;33.37;;;15.00;;
30233;SDS011;17046;52.074;4.748;2023-02-18T05:37:54;29.87;;;13.87;;
30233;SDS011;17046;52.074;4.748;2023-02-18T05:40:20;30.10;;;14.23;;
30233;SDS011;17046;52.074;4.748;2023-02-18T05:42:45;27.87;;;13.47;;
30233;SDS011;17046;52.074;4.748;2023-02-18T05:45:11;28.77;;;13.97;;
30233;SDS011;17046;52.074;4.748;2023-02-18T05:47:36;29.13;;;13.73;;
30233;SDS011;17046;52.074;4.748;2023-02-18T05:50:02;31.93;;;13.93;;
30233;SDS011;17046;52.074;4.748;2023-02-18T05:52:28;28.40;;;12.83;;
30233;SDS011;17046;52.074;4.748;2023-02-18T05:54:53;31.60;;;13.40;;
30233;SDS011;17046;52.074;4.748;2023-02-18T05:57:19;28.37;;;12.97;;
30233;SDS011;17046;52.074;4.748;2023-02-18T05:59:45;29.50;;;13.43;;
30233;SDS011;17046;52.074;4.748;2023-02-18T06:02:10;33.90;;;13.97;;
30233;SDS011;17046;52.074;4.748;2023-02-18T06:04:36;32.17;;;14.13;;
30233;SDS011;17046;52.074;4.748;2023-02-18T06:07:01;29.47;;;13.67;;
30233;SDS011;17046;52.074;4.748;2023-02-18T06:09:27;36.10;;;16.07;;
30233;SDS011;17046;52.074;4.748;2023-02-18T06:11:53;31.40;;;14.37;;
30233;SDS011;17046;52.074;4.748;2023-02-18T06:14:18;32.53;;;14.63;;
30233;SDS011;17046;52.074;4.748;2023-02-18T06:16:44;31.60;;;14.37;;
30233;SDS011;17046;52.074;4.748;2023-02-18T06:19:10;33.93;;;15.30;;
30233;SDS011;17046;52.074;4.748;2023-02-18T06:21:35;36.00;;;15.60;;
30233;SDS011;17046;52.074;4.748;2023-02-18T06:24:01;40.53;;;15.63;;
30233;SDS011;17046;52.074;4.748;2023-02-18T06:26:26;39.97;;;14.50;;
30233;SDS011;17046;52.074;4.748;2023-02-18T06:28:52;33.27;;;14.77;;
30233;SDS011;17046;52.074;4.748;2023-02-18T06:31:18;35.63;;;14.73;;
30233;SDS011;17046;52.074;4.748;2023-02-18T06:33:43;31.53;;;14.23;;
30233;SDS011;17046;52.074;4.748;2023-02-18T06:36:10;33.80;;;13.67;;
30233;SDS011;17046;52.074;4.748;2023-02-18T06:38:37;37.90;;;14.93;;
30233;SDS011;17046;52.074;4.748;2023-02-18T06:41:05;31.63;;;12.93;;
30233;SDS011;17046;52.074;4.748;2023-02-18T06:43:30;28.97;;;12.47;;
30233;SDS011;17046;52.074;4.748;2023-02-18T06:45:56;29.00;;;11.60;;
30233;SDS011;17046;52.074;4.748;2023-02-18T06:48:22;37.90;;;13.83;;
30233;SDS011;17046;52.074;4.748;2023-02-18T06:50:48;34.63;;;12.40;;
30233;SDS011;17046;52.074;4.748;2023-02-18T06:53:14;36.93;;;11.80;;
30233;SDS011;17046;52.074;4.748;2023-02-18T06:55:43;29.73;;;11.70;;
30233;SDS011;17046;52.074;4.748;2023-02-18T06:58:10;31.43;;;11.23;;
30233;SDS011;17046;52.074;4.748;2023-02-18T07:00:36;26.80;;;10.60;;
30233;SDS011;17046;52.074;4.748;2023-02-18T07:03:02;28.13;;;10.60;;
30233;SDS011;17046;52.074;4.748;2023-02-18T07:05:29;24.90;;;9.10;;
30233;SDS011;17046;52.074;4.748;2023-02-18T07:07:54;25.37;;;9.13;;
30233;SDS011;17046;52.074;4.748;2023-02-18T07:10:20;24.63;;;7.63;;
30233;SDS011;17046;52.074;4.748;2023-02-18T07:12:46;22.00;;;7.27;;
30233;SDS011;17046;52.074;4.748;2023-02-18T07:15:11;26.07;;;7.20;;
30233;SDS011;17046;52.074;4.748;2023-02-18T07:17:37;23.80;;;7.17;;
30233;SDS011;17046;52.074;4.748;2023-02-18T07:20:03;24.23;;;5.00;;
30233;SDS011;17046;52.074;4.748;2023-02-18T07:22:29;29.83;;;5.33;;
30233;SDS011;17046;52.074;4.748;2023-02-18T07:24:55;20.67;;;4.57;;
30233;SDS011;17046;52.074;4.748;2023-02-18T07:27:20;17.50;;;4.17;;
30233;SDS011;17046;52.074;4.748;2023-02-18T07:29:46;27.10;;;4.50;;
30233;SDS011;17046;52.074;4.748;2023-02-18T07:32:13;15.10;;;3.60;;
30233;SDS011;17046;52.074;4.748;2023-02-18T07:34:40;21.70;;;3.60;;
30233;SDS011;17046;52.074;4.748;2023-02-18T07:37:06;23.63;;;3.53;;
30233;SDS011;17046;52.074;4.748;2023-02-18T07:39:42;19.20;;;4.67;;
30233;SDS011;17046;52.074;4.748;2023-02-18T07:42:09;23.10;;;3.33;;
30233;SDS011;17046;52.074;4.748;2023-02-18T07:44:35;24.60;;;4.50;;
30233;SDS011;17046;52.074;4.748;2023-02-18T07:47:01;16.53;;;3.50;;
30233;SDS011;17046;52.074;4.748;2023-02-18T07:49:28;21.40;;;3.70;;
30233;SDS011;17046;52.074;4.748;2023-02-18T07:51:54;19.83;;;3.97;;
30233;SDS011;17046;52.074;4.748;2023-02-18T07:54:19;16.87;;;3.30;;
30233;SDS011;17046;52.074;4.748;2023-02-18T07:56:45;20.30;;;3.43;;
30233;SDS011;17046;52.074;4.748;2023-02-18T07:59:11;23.80;;;4.27;;
30233;SDS011;17046;52.074;4.748;2023-02-18T08:01:37;22.40;;;3.67;;
30233;SDS011;17046;52.074;4.748;2023-02-18T08:04:03;17.17;;;3.70;;
30233;SDS011;17046;52.074;4.748;2023-02-18T08:06:50;19.63;;;3.00;;
30233;SDS011;17046;52.074;4.748;2023-02-18T08:09:15;21.17;;;3.47;;
30233;SDS011;17046;52.074;4.748;2023-02-18T08:11:41;17.87;;;3.67;;
30233;SDS011;17046;52.074;4.748;2023-02-18T08:14:07;21.10;;;3.63;;
30233;SDS011;17046;52.074;4.748;2023-02-18T08:16:33;25.97;;;3.70;;
30233;SDS011;17046;52.074;4.748;2023-02-18T08:18:59;19.47;;;2.93;;
30233;SDS011;17046;52.074;4.748;2023-02-18T08:21:27;21.47;;;3.13;;
30233;SDS011;17046;52.074;4.748;2023-02-18T08:23:53;27.07;;;4.03;;
30233;SDS011;17046;52.074;4.748;2023-02-18T08:26:18;16.07;;;3.00;;
30233;SDS011;17046;52.074;4.748;2023-02-18T08:28:45;18.60;;;3.80;;
30233;SDS011;17046;52.074;4.748;2023-02-18T08:31:18;15.17;;;2.87;;
30233;SDS011;17046;52.074;4.748;2023-02-18T08:33:49;23.17;;;3.83;;
30233;SDS011;17046;52.074;4.748;2023-02-18T08:36:15;16.33;;;3.13;;
30233;SDS011;17046;52.074;4.748;2023-02-18T08:38:40;16.10;;;3.00;;
30233;SDS011;17046;52.074;4.748;2023-02-18T08:41:07;20.33;;;3.37;;
30233;SDS011;17046;52.074;4.748;2023-02-18T08:43:33;19.20;;;3.20;;
30233;SDS011;17046;52.074;4.748;2023-02-18T08:46:00;12.53;;;2.83;;
30233;SDS011;17046;52.074;4.748;2023-02-18T08:48:26;15.10;;;3.00;;
30233;SDS011;17046;52.074;4.748;2023-02-18T08:50:51;15.77;;;3.73;;
30233;SDS011;17046;52.074;4.748;2023-02-18T08:53:17;20.37;;;3.37;;
30233;SDS011;17046;52.074;4.748;2023-02-18T08:55:43;18.83;;;3.40;;
30233;SDS011;17046;52.074;4.748;2023-02-18T08:58:09;20.77;;;3.60;;
30233;SDS011;17046;52.074;4.748;2023-02-18T09:00:35;17.43;;;3.50;;
30233;SDS011;17046;52.074;4.748;2023-02-18T09:03:02;14.33;;;3.07;;
30233;SDS011;17046;52.074;4.748;2023-02-18T09:05:27;16.93;;;2.80;;
30233;SDS011;17046;52.074;4.748;2023-02-18T09:07:53;16.97;;;3.63;;
30233;SDS011;17046;52.074;4.748;2023-02-18T09:10:19;17.47;;;3.17;;
30233;SDS011;17046;52.074;4.748;2023-02-18T09:12:45;16.73;;;2.80;;
30233;SDS011;17046;52.074;4.748;2023-02-18T09:15:10;19.53;;;3.03;;
30233;SDS011;17046;52.074;4.748;2023-02-18T09:17:36;18.90;;;3.10;;
30233;SDS011;17046;52.074;4.748;2023-02-18T09:20:01;22.67;;;3.57;;
30233;SDS011;17046;52.074;4.748;2023-02-18T09:22:28;19.37;;;3.10;;
30233;SDS011;17046;52.074;4.748;2023-02-18T09:24:54;18.57;;;3.43;;
30233;SDS011;17046;52.074;4.748;2023-02-18T09:27:19;20.53;;;3.23;;
30233;SDS011;17046;52.074;4.748;2023-02-18T09:29:46;21.93;;;3.70;;
30233;SDS011;17046;52.074;4.748;2023-02-18T09:32:12;20.70;;;2.93;;
30233;SDS011;17046;52.074;4.748;2023-02-18T09:34:37;17.27;;;3.53;;
30233;SDS011;17046;52.074;4.748;2023-02-18T09:37:03;19.67;;;4.40;;
30233;SDS011;17046;52.074;4.748;2023-02-18T09:39:29;18.70;;;3.57;;
30233;SDS011;17046;52.074;4.748;2023-02-18T09:41:55;19.47;;;4.30;;
30233;SDS011;17046;52.074;4.748;2023-02-18T09:44:26;15.27;;;3.30;;
30233;SDS011;17046;52.074;4.748;2023-02-18T09:47:05;23.33;;;4.23;;
30233;SDS011;17046;52.074;4.748;2023-02-18T09:49:40;14.40;;;3.60;;
30233;SDS011;17046;52.074;4.748;2023-02-18T09:52:21;14.87;;;2.97;;
30233;SDS011;17046;52.074;4.748;2023-02-18T09:54:50;21.33;;;4.07;;
30233;SDS011;17046;52.074;4.748;2023-02-18T09:57:23;21.53;;;3.83;;
30233;SDS011;17046;52.074;4.748;2023-02-18T10:00:00;19.43;;;3.93;;
30233;SDS011;17046;52.074;4.748;2023-02-18T10:02:30;19.93;;;3.27;;
30233;SDS011;17046;52.074;4.748;2023-02-18T10:04:56;17.93;;;3.03;;
30233;SDS011;17046;52.074;4.748;2023-02-18T10:07:32;22.70;;;4.07;;
30233;SDS011;17046;52.074;4.748;2023-02-18T10:10:01;18.87;;;3.30;;
30233;SDS011;17046;52.074;4.748;2023-02-18T10:12:39;26.83;;;4.17;;
30233;SDS011;17046;52.074;4.748;2023-02-18T10:15:06;17.60;;;4.03;;
30233;SDS011;17046;52.074;4.748;2023-02-18T10:17:49;17.40;;;3.50;;
30233;SDS011;17046;52.074;4.748;2023-02-18T10:20:18;20.87;;;3.93;;
30233;SDS011;17046;52.074;4.748;2023-02-18T10:22:51;18.33;;;3.67;;
30233;SDS011;17046;52.074;4.748;2023-02-18T10:25:20;18.63;;;3.67;;
30233;SDS011;17046;52.074;4.748;2023-02-18T10:27:48;22.90;;;3.40;;
30233;SDS011;17046;52.074;4.748;2023-02-18T10:38:57;20.10;;;3.57;;
30233;SDS011;17046;52.074;4.748;2023-02-18T10:46:46;21.07;;;3.50;;
30233;SDS011;17046;52.074;4.748;2023-02-18T10:51:55;16.70;;;3.20;;
30233;SDS011;17046;52.074;4.748;2023-02-18T10:54:24;12.20;;;2.67;;
30233;SDS011;17046;52.074;4.748;2023-02-18T10:56:51;13.67;;;2.70;;
30233;SDS011;17046;52.074;4.748;2023-02-18T10:59:23;14.93;;;2.80;;
30233;SDS011;17046;52.074;4.748;2023-02-18T11:01:58;20.70;;;3.80;;
30233;SDS011;17046;52.074;4.748;2023-02-18T11:04:36;15.00;;;2.57;;
30233;SDS011;17046;52.074;4.748;2023-02-18T11:07:05;15.90;;;3.50;;
30233;SDS011;17046;52.074;4.748;2023-02-18T11:12:16;17.07;;;2.93;;
30233;SDS011;17046;52.074;4.748;2023-02-18T11:14:48;19.60;;;3.30;;
30233;SDS011;17046;52.074;4.748;2023-02-18T11:17:29;17.03;;;3.80;;
30233;SDS011;17046;52.074;4.748;2023-02-18T11:19:57;19.73;;;3.67;;
30233;SDS011;17046;52.074;4.748;2023-02-18T11:22:29;19.87;;;3.30;;
30233;SDS011;17046;52.074;4.748;2023-02-18T11:25:00;12.43;;;2.87;;
30233;SDS011;17046;52.074;4.748;2023-02-18T11:27:47;16.53;;;3.03;;
30233;SDS011;17046;52.074;4.748;2023-02-18T11:32:57;21.43;;;3.23;;
30233;SDS011;17046;52.074;4.748;2023-02-18T11:35:27;18.00;;;3.60;;
30233;SDS011;17046;52.074;4.748;2023-02-18T11:37:56;16.77;;;3.53;;
30233;SDS011;17046;52.074;4.748;2023-02-18T11:40:24;15.90;;;3.50;;
30233;SDS011;17046;52.074;4.748;2023-02-18T11:45:39;19.27;;;3.10;;
30233;SDS011;17046;52.074;4.748;2023-02-18T11:48:07;18.23;;;3.73;;
30233;SDS011;17046;52.074;4.748;2023-02-18T11:50:40;24.13;;;3.80;;
30233;SDS011;17046;52.074;4.748;2023-02-18T11:55:59;16.53;;;2.97;;
30233;SDS011;17046;52.074;4.748;2023-02-18T11:58:30;13.90;;;2.83;;
30233;SDS011;17046;52.074;4.748;2023-02-18T12:01:05;13.77;;;3.17;;
30233;SDS011;17046;52.074;4.748;2023-02-18T12:03:51;11.50;;;2.90;;
30233;SDS011;17046;52.074;4.748;2023-02-18T12:06:25;12.37;;;2.87;;
30233;SDS011;17046;52.074;4.748;2023-02-18T12:08:56;13.27;;;2.57;;
30233;SDS011;17046;52.074;4.748;2023-02-18T12:11:32;18.27;;;2.87;;
30233;SDS011;17046;52.074;4.748;2023-02-18T12:14:02;15.93;;;3.20;;
30233;SDS011;17046;52.074;4.748;2023-02-18T12:22:26;13.73;;;2.30;;
30233;SDS011;17046;52.074;4.748;2023-02-18T12:25:24;15.97;;;2.57;;
30233;SDS011;17046;52.074;4.748;2023-02-18T12:36:43;11.03;;;2.17;;
30233;SDS011;17046;52.074;4.748;2023-02-18T12:54:29;12.27;;;2.50;;
30233;SDS011;17046;52.074;4.748;2023-02-18T12:57:06;13.27;;;2.33;;
30233;SDS011;17046;52.074;4.748;2023-02-18T13:14:20;11.80;;;3.20;;
30233;SDS011;17046;52.074;4.748;2023-02-18T13:16:51;10.80;;;2.83;;
30233;SDS011;17046;52.074;4.748;2023-02-18T13:19:21;16.83;;;3.03;;
30233;SDS011;17046;52.074;4.748;2023-02-18T13:21:48;12.23;;;2.30;;
30233;SDS011;17046;52.074;4.748;2023-02-18T13:24:36;15.50;;;2.93;;
30233;SDS011;17046;52.074;4.748;2023-02-18T13:32:50;16.10;;;2.23;;
30233;SDS011;17046;52.074;4.748;2023-02-18T13:35:20;8.77;;;1.77;;
30233;SDS011;17046;52.074;4.748;2023-02-18T13:40:42;17.43;;;2.70;;
30233;SDS011;17046;52.074;4.748;2023-02-18T13:46:11;15.33;;;2.90;;
30233;SDS011;17046;52.074;4.748;2023-02-18T13:48:46;14.73;;;2.40;;
30233;SDS011;17046;52.074;4.748;2023-02-18T13:52:00;11.53;;;2.20;;
30233;SDS011;17046;52.074;4.748;2023-02-18T13:54:07;11.00;;;2.10;;
30233;SDS011;17046;52.074;4.748;2023-02-18T13:56:39;10.50;;;2.67;;
30233;SDS011;17046;52.074;4.748;2023-02-18T14:01:45;14.17;;;2.60;;
30233;SDS011;17046;52.074;4.748;2023-02-18T14:09:51;8.30;;;1.93;;
30233;SDS011;17046;52.074;4.748;2023-02-18T14:17:43;11.63;;;1.90;;
30233;SDS011;17046;52.074;4.748;2023-02-18T14:25:53;9.83;;;1.80;;
30233;SDS011;17046;52.074;4.748;2023-02-18T14:33:36;7.40;;;2.07;;
30233;SDS011;17046;52.074;4.748;2023-02-18T14:50:11;11.43;;;2.10;;
30233;SDS011;17046;52.074;4.748;2023-02-18T14:52:43;12.23;;;2.53;;
30233;SDS011;17046;52.074;4.748;2023-02-18T14:55:28;20.20;;;3.23;;
30233;SDS011;17046;52.074;4.748;2023-02-18T14:58:58;11.43;;;2.93;;
30233;SDS011;17046;52.074;4.748;2023-02-18T15:01:06;12.80;;;2.80;;
30233;SDS011;17046;52.074;4.748;2023-02-18T15:03:41;11.97;;;2.70;;
30233;SDS011;17046;52.074;4.748;2023-02-18T15:09:00;13.37;;;2.73;;
30233;SDS011;17046;52.074;4.748;2023-02-18T15:11:37;18.83;;;3.07;;
30233;SDS011;17046;52.074;4.748;2023-02-18T15:14:10;10.20;;;2.20;;
30233;SDS011;17046;52.074;4.748;2023-02-18T15:16:50;14.33;;;2.80;;
30233;SDS011;17046;52.074;4.748;2023-02-18T15:19:20;12.57;;;2.50;;
30233;SDS011;17046;52.074;4.748;2023-02-18T15:21:50;18.67;;;2.77;;
30233;SDS011;17046;52.074;4.748;2023-02-18T15:26:55;17.67;;;3.23;;
30233;SDS011;17046;52.074;4.748;2023-02-18T15:29:25;20.03;;;3.43;;
30233;SDS011;17046;52.074;4.748;2023-02-18T15:31:53;13.73;;;3.40;;
30233;SDS011;17046;52.074;4.748;2023-02-18T15:36:53;16.80;;;3.23;;
30233;SDS011;17046;52.074;4.748;2023-02-18T15:39:19;15.07;;;2.90;;
30233;SDS011;17046;52.074;4.748;2023-02-18T15:41:45;13.53;;;3.23;;
30233;SDS011;17046;52.074;4.748;2023-02-18T15:44:15;15.70;;;3.43;;
30233;SDS011;17046;52.074;4.748;2023-02-18T15:46:46;17.83;;;3.67;;
30233;SDS011;17046;52.074;4.748;2023-02-18T15:49:12;25.43;;;4.03;;
30233;SDS011;17046;52.074;4.748;2023-02-18T15:51:41;18.73;;;3.87;;
30233;SDS011;17046;52.074;4.748;2023-02-18T15:54:12;17.03;;;3.50;;
30233;SDS011;17046;52.074;4.748;2023-02-18T15:56:42;14.93;;;3.60;;
30233;SDS011;17046;52.074;4.748;2023-02-18T15:59:26;17.10;;;3.37;;
30233;SDS011;17046;52.074;4.748;2023-02-18T16:04:45;17.10;;;4.20;;
30233;SDS011;17046;52.074;4.748;2023-02-18T16:07:19;18.53;;;3.73;;
30233;SDS011;17046;52.074;4.748;2023-02-18T16:10:07;21.23;;;3.83;;
30233;SDS011;17046;52.074;4.748;2023-02-18T16:12:43;17.03;;;4.03;;
30233;SDS011;17046;52.074;4.748;2023-02-18T16:15:28;22.43;;;4.23;;
30233;SDS011;17046;52.074;4.748;2023-02-18T16:17:55;19.10;;;4.23;;
30233;SDS011;17046;52.074;4.748;2023-02-18T16:20:33;25.53;;;5.03;;
30233;SDS011;17046;52.074;4.748;2023-02-18T16:23:01;18.73;;;4.07;;
30233;SDS011;17046;52.074;4.748;2023-02-18T16:25:41;22.73;;;4.37;;
30233;SDS011;17046;52.074;4.748;2023-02-18T16:28:21;21.67;;;3.83;;
30233;SDS011;17046;52.074;4.748;2023-02-18T16:30:48;15.97;;;3.77;;
30233;SDS011;17046;52.074;4.748;2023-02-18T16:33:14;23.33;;;4.27;;
30233;SDS011;17046;52.074;4.748;2023-02-18T16:35:40;19.07;;;4.27;;
30233;SDS011;17046;52.074;4.748;2023-02-18T16:38:06;23.43;;;4.03;;
30233;SDS011;17046;52.074;4.748;2023-02-18T16:40:39;23.30;;;4.43;;
30233;SDS011;17046;52.074;4.748;2023-02-18T16:43:09;24.67;;;3.80;;
30233;SDS011;17046;52.074;4.748;2023-02-18T16:45:52;21.97;;;3.57;;
30233;SDS011;17046;52.074;4.748;2023-02-18T16:48:33;18.87;;;3.80;;
30233;SDS011;17046;52.074;4.748;2023-02-18T16:51:02;28.63;;;4.47;;
30233;SDS011;17046;52.074;4.748;2023-02-18T16:53:31;27.30;;;4.43;;
30233;SDS011;17046;52.074;4.748;2023-02-18T16:55:56;21.83;;;4.00;;
30233;SDS011;17046;52.074;4.748;2023-02-18T16:58:22;31.87;;;4.63;;
30233;SDS011;17046;52.074;4.748;2023-02-18T17:00:48;24.67;;;4.67;;
30233;SDS011;17046;52.074;4.748;2023-02-18T17:03:16;24.53;;;4.60;;
30233;SDS011;17046;52.074;4.748;2023-02-18T17:05:42;39.87;;;5.80;;
30233;SDS011;17046;52.074;4.748;2023-02-18T17:08:13;23.67;;;5.37;;
30233;SDS011;17046;52.074;4.748;2023-02-18T17:10:42;27.73;;;4.80;;
30233;SDS011;17046;52.074;4.748;2023-02-18T17:13:12;26.07;;;4.87;;
30233;SDS011;17046;52.074;4.748;2023-02-18T17:15:39;25.93;;;4.77;;
30233;SDS011;17046;52.074;4.748;2023-02-18T17:18:07;23.90;;;5.20;;
30233;SDS011;17046;52.074;4.748;2023-02-18T17:20:33;25.13;;;5.90;;
30233;SDS011;17046;52.074;4.748;2023-02-18T17:22:59;24.70;;;6.07;;
30233;SDS011;17046;52.074;4.748;2023-02-18T17:25:27;29.43;;;6.50;;
30233;SDS011;17046;52.074;4.748;2023-02-18T17:27:56;33.03;;;6.60;;
30233;SDS011;17046;52.074;4.748;2023-02-18T17:30:21;32.67;;;7.57;;
30233;SDS011;17046;52.074;4.748;2023-02-18T17:32:47;30.00;;;7.47;;
30233;SDS011;17046;52.074;4.748;2023-02-18T17:35:15;29.57;;;6.33;;
30233;SDS011;17046;52.074;4.748;2023-02-18T17:37:45;28.60;;;7.33;;
30233;SDS011;17046;52.074;4.748;2023-02-18T17:40:22;27.37;;;7.47;;